createdAt,value
2018-12-26T15:02:18.271Z,101171.37
2018-12-26T15:05:05.344Z,101167.91
2018-12-26T15:07:54.913Z,101167.80
2018-12-26T15:10:42.131Z,101167.23
2018-12-26T15:13:28.861Z,101161.95
2018-12-26T15:16:09.618Z,101158.76
2018-12-26T15:18:49.724Z,101162.73
2018-12-26T15:21:29.851Z,101166.59
2018-12-26T15:24:09.973Z,101162.73
2018-12-26T15:26:50.074Z,101159.73
2018-12-26T15:29:30.294Z,101162.34
2018-12-26T15:32:10.373Z,101163.23
2018-12-26T15:34:50.495Z,101167.63
2018-12-26T15:37:30.283Z,101171.70
2018-12-26T15:40:11.251Z,101162.71
2018-12-26T15:42:57.206Z,101170.03
2018-12-26T15:45:38.712Z,101166.30
2018-12-26T15:48:19.571Z,101167.70
2018-12-26T15:50:59.598Z,101168.73
2018-12-26T15:53:40.793Z,101173.73
2018-12-26T15:56:21.571Z,101173.36
2018-12-26T15:59:02.874Z,101171.12
2018-12-26T16:01:44.122Z,101169.44
2018-12-26T16:04:24.972Z,101165.97
2018-12-26T16:07:05.984Z,101167.27
2018-12-26T16:09:46.642Z,101167.70
2018-12-26T16:12:27.127Z,101166.95
2018-12-26T16:15:07.777Z,101164.53
2018-12-26T16:17:48.234Z,101164.41
2018-12-26T16:20:28.693Z,101167.98
2018-12-26T16:23:09.560Z,101171.37
2018-12-26T16:25:50.444Z,101170.44
2018-12-26T16:28:31.094Z,101174.76
2018-12-26T16:31:12.355Z,101180.04
2018-12-26T16:33:53.051Z,101176.16
2018-12-26T16:36:33.314Z,101180.95
2018-12-26T16:39:14.417Z,101184.81
2018-12-26T16:41:55.526Z,101178.62
2018-12-26T16:44:36.833Z,101176.16
2018-12-26T16:47:17.818Z,101168.52
2018-12-26T16:49:58.573Z,101175.96
2018-12-26T16:52:39.355Z,101176.42
2018-12-26T16:55:20.325Z,101174.80
2018-12-26T16:58:01.119Z,101181.17
2018-12-26T17:00:43.034Z,101175.27
2018-12-26T17:03:24.253Z,101176.48
2018-12-26T17:06:05.137Z,101176.80
2018-12-26T17:08:45.871Z,101179.03
2018-12-26T17:11:26.464Z,101178.53
2018-12-26T17:14:07.562Z,101187.93
2018-12-26T17:16:48.978Z,101185.28
2018-12-26T17:19:30.013Z,101177.78
2018-12-26T17:22:10.979Z,101174.00
2018-12-26T17:24:52.034Z,101178.66
2018-12-26T17:27:33.283Z,101176.57
2018-12-26T17:30:13.817Z,101175.79
2018-12-26T17:33:00.573Z,101177.09
2018-12-26T17:35:35.740Z,101171.45
2018-12-26T17:38:16.715Z,101170.05
2018-12-26T17:40:57.816Z,101167.86
2018-12-26T17:43:38.577Z,101159.75
2018-12-26T17:46:19.876Z,101154.91
2018-12-26T17:49:00.297Z,101155.75
2018-12-26T17:51:41.175Z,101157.28
2018-12-26T17:54:22.247Z,101150.11
2018-12-26T17:57:03.691Z,101150.19
2018-12-26T17:59:45.112Z,101141.91
2018-12-26T18:02:25.989Z,101148.02
2018-12-26T18:05:06.580Z,101140.06
2018-12-26T18:07:47.449Z,101140.52
2018-12-26T18:10:28.099Z,101136.84
2018-12-26T18:13:09.129Z,101129.46
2018-12-26T18:15:49.826Z,101127.88
2018-12-26T18:18:31.203Z,101125.36
2018-12-26T18:21:12.329Z,101127.95
2018-12-26T18:23:53.294Z,101129.49
2018-12-26T18:26:34.364Z,101127.91
2018-12-26T18:29:15.020Z,101129.34
2018-12-26T18:31:56.085Z,101131.11
2018-12-26T18:34:38.739Z,101132.91
2018-12-26T18:37:19.456Z,101128.34
2018-12-26T18:40:00.178Z,101131.38
2018-12-26T18:42:41.302Z,101132.37
2018-12-26T18:45:22.248Z,101129.70
2018-12-26T18:48:03.543Z,101128.41
2018-12-26T18:50:45.709Z,101122.36
2018-12-26T18:53:26.023Z,101126.48
2018-12-26T18:56:06.482Z,101131.01
2018-12-26T18:58:47.385Z,101122.48
2018-12-26T19:01:30.760Z,101123.25
2018-12-26T19:04:10.888Z,101122.88
2018-12-26T19:06:51.936Z,101116.83
2018-12-26T19:09:32.883Z,101114.83
2018-12-26T19:12:13.859Z,101110.38
2018-12-26T19:14:54.153Z,101099.81
2018-12-26T19:17:34.881Z,101100.53
2018-12-26T19:20:15.234Z,101103.12
2018-12-26T19:22:55.370Z,101098.00
2018-12-26T19:25:35.678Z,101095.24
2018-12-26T19:28:17.416Z,101094.73
2018-12-26T19:30:57.995Z,101090.66
2018-12-26T19:33:38.290Z,101090.05
2018-12-26T19:36:19.532Z,101086.83
2018-12-26T19:39:00.218Z,101087.13
2018-12-26T19:41:40.440Z,101094.09
2018-12-26T19:44:21.341Z,101087.76
2018-12-26T19:47:01.446Z,101097.01
2018-12-26T19:49:42.261Z,101093.20
2018-12-26T19:52:23.146Z,101091.20
2018-12-26T19:55:03.488Z,101091.11
2018-12-26T19:57:45.081Z,101089.52
2018-12-26T20:00:26.357Z,101094.43
2018-12-26T20:03:07.056Z,101091.96
2018-12-26T20:05:48.419Z,101091.18
2018-12-26T20:08:29.208Z,101086.82
2018-12-26T20:11:09.562Z,101096.30
2018-12-26T20:13:50.286Z,101089.58
2018-12-26T20:16:31.523Z,101094.32
2018-12-26T20:19:11.760Z,101093.19
2018-12-26T20:21:52.419Z,101096.71
2018-12-26T20:24:32.872Z,101098.45
2018-12-26T20:27:13.968Z,101084.08
2018-12-26T20:29:54.773Z,101089.80
2018-12-26T20:32:35.845Z,101082.45
2018-12-26T20:35:16.186Z,101085.70
2018-12-26T20:37:56.494Z,101093.48
2018-12-26T20:40:37.607Z,101096.49
2018-12-26T20:43:18.464Z,101087.90
2018-12-26T20:45:59.621Z,101085.92
2018-12-26T20:48:40.407Z,101082.70
2018-12-26T20:51:20.445Z,101083.92
2018-12-26T20:54:00.954Z,101085.22
2018-12-26T20:56:41.360Z,101083.76
2018-12-26T20:59:22.327Z,101088.45
2018-12-26T21:02:05.719Z,101086.82
2018-12-26T21:04:45.218Z,101086.36
2018-12-26T21:07:25.843Z,101079.56
2018-12-26T21:10:06.766Z,101079.77
2018-12-26T21:12:47.768Z,101080.99
2018-12-26T21:15:28.652Z,101075.88
2018-12-26T21:18:09.523Z,101070.75
2018-12-26T21:20:50.539Z,101079.69
2018-12-26T21:23:31.018Z,101074.27
2018-12-26T21:26:11.581Z,101075.95
2018-12-26T21:28:52.554Z,101068.70
2018-12-26T21:31:34.169Z,101066.31
2018-12-26T21:34:15.068Z,101075.33
2018-12-26T21:36:56.233Z,101070.00
2018-12-26T21:39:37.172Z,101062.95
2018-12-26T21:42:18.081Z,101068.48
2018-12-26T21:44:58.938Z,101070.69
2018-12-26T21:47:39.634Z,101074.89
2018-12-26T21:50:20.485Z,101074.44
2018-12-26T21:53:01.444Z,101065.30
2018-12-26T21:55:42.004Z,101068.37
2018-12-26T21:58:22.296Z,101055.66
2018-12-26T22:01:02.606Z,101061.66
2018-12-26T22:03:43.386Z,101060.48
2018-12-26T22:06:23.846Z,101057.20
2018-12-26T22:09:04.979Z,101067.06
2018-12-26T22:11:45.980Z,101060.19
2018-12-26T22:14:26.999Z,101055.92
2018-12-26T22:17:08.203Z,101062.66
2018-12-26T22:19:48.604Z,101049.33
2018-12-26T22:22:28.961Z,101064.70
2018-12-26T22:25:09.818Z,101054.63
2018-12-26T22:27:50.782Z,101066.01
2018-12-26T22:30:32.020Z,101060.42
2018-12-26T22:33:12.743Z,101050.25
2018-12-26T22:35:53.656Z,101063.79
2018-12-26T22:38:34.644Z,101055.23
2018-12-26T22:41:14.977Z,101065.62
2018-12-26T22:43:55.448Z,101068.83
2018-12-26T22:46:35.647Z,101050.62
2018-12-26T22:49:16.565Z,101053.38
2018-12-26T22:51:57.338Z,101058.13
2018-12-26T22:54:37.971Z,101051.41
2018-12-26T22:57:19.380Z,101052.87
2018-12-26T23:00:00.278Z,101052.70
2018-12-26T23:02:41.122Z,101068.70
2018-12-26T23:05:21.193Z,101053.60
2018-12-26T23:08:01.934Z,101070.38
2018-12-26T23:10:42.675Z,101056.50
2018-12-26T23:13:23.563Z,101051.78
2018-12-26T23:16:04.240Z,101068.45
2018-12-26T23:18:44.898Z,101063.79
2018-12-26T23:21:25.165Z,101060.73
2018-12-26T23:24:05.765Z,101068.99
2018-12-26T23:26:45.638Z,101070.84
2018-12-26T23:29:26.726Z,101068.36
2018-12-26T23:32:07.733Z,101098.40
2018-12-26T23:34:49.327Z,101083.89
2018-12-26T23:37:30.571Z,101092.56
2018-12-26T23:40:11.587Z,101092.61
2018-12-26T23:42:52.816Z,101097.39
2018-12-26T23:45:33.205Z,101110.05
2018-12-26T23:48:13.877Z,101105.31
2018-12-26T23:50:54.857Z,101111.48
2018-12-26T23:53:35.524Z,101118.14
2018-12-26T23:56:16.058Z,101124.20
2018-12-26T23:58:56.713Z,101127.14
